DKH1326 RKPC-ZSPD
Flight info
| Callsign | DKH1326 |
|---|---|
| Flight time | N/A |
| Altitude | 34000 |
| Route | PANSI2W PANSI Y711 PONIK A593 LAMEN/K0754F280 A593 AKARA/K0750S0840 A593 PUD |
| Aircraft | A320/M-SDE3FGHIRWY/LB1 |
Departure
| Time | 2026-05-06 08:15 |
|---|---|
| Airport | Jeju International Airport (RKPC) |
Arrival
| Time | N/A |
|---|---|
| Airport | Shanghai Pudong International Airport (ZSPD) |
| Time | Latitude | Longitude | Altitude | Speed | Heading |
|---|---|---|---|---|---|
| 2026-05-06 08:13 | 33.51399 | 126.49810 | 88 ft | 1 kts | 325° |
| 2026-05-06 08:13 | 33.51439 | 126.49774 | 87 ft | 11 kts | 316° |
| 2026-05-06 08:14 | 33.51456 | 126.49699 | 86 ft | 10 kts | 256° |
| 2026-05-06 08:14 | 33.51417 | 126.49619 | 89 ft | 15 kts | 238° |
| 2026-05-06 08:14 | 33.51243 | 126.49279 | 89 ft | 86 kts | 238° |
| 2026-05-06 08:14 | 33.50814 | 126.48446 | 94 ft | 146 kts | 237° |
| 2026-05-06 08:15 | 33.50222 | 126.47254 | 325 ft | 179 kts | 242° |
| 2026-05-06 08:15 | 33.49588 | 126.45877 | 894 ft | 197 kts | 243° |
| 2026-05-06 08:15 | 33.48949 | 126.44367 | 1544 ft | 211 kts | 242° |
| 2026-05-06 08:15 | 33.48177 | 126.42772 | 2034 ft | 233 kts | 236° |
| 2026-05-06 08:16 | 33.47237 | 126.41070 | 2603 ft | 253 kts | 235° |
| 2026-05-06 08:16 | 33.46918 | 126.40502 | 2864 ft | 256 kts | 234° |
| 2026-05-06 08:16 | 33.45233 | 126.37464 | 4329 ft | 266 kts | 236° |
| 2026-05-06 08:16 | 33.44219 | 126.35595 | 5264 ft | 269 kts | 235° |
| 2026-05-06 08:17 | 33.42969 | 126.33930 | 6216 ft | 270 kts | 220° |
| 2026-05-06 08:17 | 33.41380 | 126.32707 | 7086 ft | 274 kts | 205° |
| 2026-05-06 08:17 | 33.39557 | 126.32017 | 7925 ft | 278 kts | 194° |
| 2026-05-06 08:17 | 33.37665 | 126.31478 | 8785 ft | 281 kts | 195° |
| 2026-05-06 08:18 | 33.35770 | 126.30933 | 9615 ft | 286 kts | 195° |
| 2026-05-06 08:18 | 33.33815 | 126.30368 | 10244 ft | 297 kts | 195° |
| 2026-05-06 08:18 | 33.31726 | 126.29760 | 10514 ft | 321 kts | 195° |
| 2026-05-06 08:18 | 33.29485 | 126.29106 | 10835 ft | 339 kts | 195° |
| 2026-05-06 08:19 | 33.27173 | 126.28434 | 11463 ft | 345 kts | 195° |
| 2026-05-06 08:19 | 33.24819 | 126.27751 | 12141 ft | 350 kts | 195° |
| 2026-05-06 08:19 | 33.22435 | 126.27062 | 12809 ft | 355 kts | 195° |
| 2026-05-06 08:19 | 33.20023 | 126.26366 | 13458 ft | 359 kts | 195° |
| 2026-05-06 08:20 | 33.17581 | 126.25661 | 14069 ft | 364 kts | 195° |
| 2026-05-06 08:20 | 33.15104 | 126.24945 | 14631 ft | 367 kts | 195° |
| 2026-05-06 08:20 | 33.12609 | 126.24224 | 15211 ft | 371 kts | 195° |
| 2026-05-06 08:20 | 33.10089 | 126.23494 | 15787 ft | 375 kts | 195° |
| 2026-05-06 08:21 | 33.07540 | 126.22756 | 16356 ft | 379 kts | 195° |
| 2026-05-06 08:21 | 33.04967 | 126.22013 | 16913 ft | 383 kts | 195° |
| 2026-05-06 08:21 | 33.02367 | 126.21262 | 17491 ft | 386 kts | 196° |
| 2026-05-06 08:21 | 32.99760 | 126.20426 | 18038 ft | 389 kts | 201° |
| 2026-05-06 08:22 | 32.97201 | 126.19330 | 18558 ft | 392 kts | 202° |
| 2026-05-06 08:22 | 32.94623 | 126.18221 | 19034 ft | 395 kts | 202° |
| 2026-05-06 08:22 | 32.92031 | 126.17100 | 19516 ft | 399 kts | 202° |
| 2026-05-06 08:22 | 32.89411 | 126.15971 | 19992 ft | 402 kts | 202° |
| 2026-05-06 08:23 | 32.86764 | 126.14838 | 20462 ft | 405 kts | 202° |
| 2026-05-06 08:23 | 32.85010 | 126.14088 | 20749 ft | 408 kts | 202° |